createdAt,value
2018-12-26T00:01:31.725Z,192.20
2018-12-26T00:04:03.144Z,204.43
2018-12-26T00:06:33.156Z,97.13
2018-12-26T00:09:05.168Z,65.70
2018-12-26T00:11:35.580Z,110.43
2018-12-26T00:14:05.687Z,74.83
2018-12-26T00:16:36.269Z,63.47
2018-12-26T00:19:06.167Z,73.03
2018-12-26T00:21:36.229Z,164.87
2018-12-26T00:24:06.565Z,96.93
2018-12-26T00:26:36.533Z,293.27
2018-12-26T00:29:06.619Z,242.17
2018-12-26T00:31:36.621Z,250.13
2018-12-26T00:34:07.115Z,59.90
2018-12-26T00:36:37.582Z,217.70
2018-12-26T00:39:07.379Z,337.73
2018-12-26T00:41:37.789Z,78.40
2018-12-26T00:44:07.702Z,234.77
2018-12-26T00:46:37.723Z,192.60
2018-12-26T00:49:08.220Z,245.93
2018-12-26T00:51:39.095Z,157.30
2018-12-26T00:54:08.971Z,255.57
2018-12-26T00:56:38.933Z,269.13
2018-12-26T00:59:08.866Z,208.87
2018-12-26T01:01:38.953Z,277.37
2018-12-26T01:04:08.826Z,418.93
2018-12-26T01:06:39.252Z,165.87
2018-12-26T01:09:08.999Z,201.60
2018-12-26T01:11:38.783Z,629.30
2018-12-26T01:14:08.708Z,230.63
2018-12-26T01:16:38.654Z,386.53
2018-12-26T01:19:09.085Z,271.70
2018-12-26T01:21:39.171Z,517.47
2018-12-26T01:24:09.166Z,295.50
2018-12-26T01:26:52.687Z,317.50
2018-12-26T01:29:23.182Z,318.30
2018-12-26T01:31:52.868Z,371.23
2018-12-26T01:34:23.354Z,269.23
2018-12-26T01:36:53.474Z,321.30
2018-12-26T01:39:23.755Z,268.23
2018-12-26T01:41:54.591Z,176.20
2018-12-26T01:44:25.215Z,242.43
2018-12-26T01:46:55.529Z,152.97
2018-12-26T01:49:25.352Z,182.07
2018-12-26T01:51:55.662Z,144.10
2018-12-26T01:54:25.983Z,155.80
2018-12-26T01:56:57.091Z,161.67
2018-12-26T01:59:26.874Z,204.97
2018-12-26T02:01:57.272Z,209.80
2018-12-26T02:04:27.585Z,190.50
2018-12-26T02:06:57.425Z,141.27
2018-12-26T02:09:27.837Z,214.90
2018-12-26T02:12:02.031Z,150.80
2018-12-26T02:14:30.720Z,153.37
2018-12-26T02:17:00.123Z,167.13
2018-12-26T02:19:28.982Z,141.97
2018-12-26T02:21:58.171Z,151.57
2018-12-26T02:24:27.430Z,122.30
2018-12-26T02:26:56.597Z,124.10
2018-12-26T02:29:25.266Z,171.33
2018-12-26T02:31:54.289Z,147.03
2018-12-26T02:34:23.532Z,144.93
2018-12-26T02:36:52.592Z,145.67
2018-12-26T02:39:21.582Z,160.93
2018-12-26T02:41:50.149Z,216.73
2018-12-26T02:44:19.427Z,177.27
2018-12-26T02:46:48.156Z,123.03
2018-12-26T02:49:17.597Z,105.90
2018-12-26T02:51:46.635Z,179.67
2018-12-26T02:54:15.693Z,181.47
2018-12-26T02:56:48.706Z,149.97
2018-12-26T02:59:15.072Z,179.57
2018-12-26T03:01:43.954Z,160.30
2018-12-26T03:04:13.265Z,184.60
2018-12-26T03:06:42.221Z,186.77
2018-12-26T03:09:11.320Z,178.50
2018-12-26T03:11:40.208Z,179.47
2018-12-26T03:14:09.423Z,187.80
2018-12-26T03:16:38.438Z,197.57
2018-12-26T03:19:07.083Z,188.43
2018-12-26T03:21:36.454Z,227.37
2018-12-26T03:24:05.064Z,253.43
2018-12-26T03:26:34.336Z,237.03
2018-12-26T03:29:03.580Z,326.37
2018-12-26T03:31:32.681Z,369.27
2018-12-26T03:34:01.503Z,403.53
2018-12-26T03:36:30.361Z,437.00
2018-12-26T03:38:59.431Z,423.93
2018-12-26T03:41:28.976Z,399.27
2018-12-26T03:43:57.960Z,365.37
2018-12-26T03:46:26.840Z,395.83
2018-12-26T03:48:56.213Z,277.07
2018-12-26T03:51:25.178Z,413.73
2018-12-26T03:53:54.520Z,413.70
2018-12-26T03:56:23.553Z,285.00
2018-12-26T03:58:52.344Z,363.30
2018-12-26T04:01:20.991Z,384.97
2018-12-26T04:03:49.971Z,419.73
2018-12-26T04:06:19.308Z,373.30
2018-12-26T04:08:48.107Z,326.37
2018-12-26T04:11:17.011Z,360.67
2018-12-26T04:13:46.040Z,292.77
2018-12-26T04:16:15.447Z,406.70
2018-12-26T04:18:44.139Z,361.43
2018-12-26T04:21:13.917Z,298.53
2018-12-26T04:23:43.317Z,325.13
2018-12-26T04:26:13.092Z,285.57
2018-12-26T04:28:43.353Z,232.97
2018-12-26T04:31:13.394Z,364.90
2018-12-26T04:33:43.434Z,255.97
2018-12-26T04:36:13.753Z,229.90
2018-12-26T04:38:44.029Z,241.10
2018-12-26T04:41:13.491Z,242.30
2018-12-26T04:43:43.451Z,207.10
2018-12-26T04:46:12.779Z,229.00
2018-12-26T04:48:42.494Z,199.57
2018-12-26T04:51:12.973Z,352.73
2018-12-26T04:53:42.949Z,197.37
2018-12-26T04:56:12.087Z,198.20
2018-12-26T04:58:42.385Z,193.80
2018-12-26T05:01:11.113Z,273.63
2018-12-26T05:03:40.923Z,347.47
2018-12-26T05:06:10.652Z,259.27
2018-12-26T05:08:40.588Z,151.87
2018-12-26T05:11:10.084Z,211.97
2018-12-26T05:13:39.570Z,179.93
2018-12-26T05:16:08.939Z,167.17
2018-12-26T05:18:38.278Z,170.30
2018-12-26T05:21:08.293Z,126.83
2018-12-26T05:23:38.107Z,76.70
2018-12-26T05:26:08.015Z,77.70
2018-12-26T05:28:37.382Z,76.90
2018-12-26T05:31:06.618Z,161.17
2018-12-26T05:33:36.008Z,65.07
2018-12-26T05:36:05.824Z,66.37
2018-12-26T05:38:35.178Z,82.90
2018-12-26T05:41:05.017Z,112.00
2018-12-26T05:43:34.014Z,66.73
2018-12-26T05:46:03.622Z,85.17
2018-12-26T05:48:33.723Z,64.12
2018-12-26T05:51:03.674Z,65.07
2018-12-26T05:53:33.558Z,57.63
2018-12-26T05:56:03.420Z,59.00
2018-12-26T05:58:34.696Z,53.87
2018-12-26T06:01:05.002Z,67.93
2018-12-26T06:03:34.799Z,54.60
2018-12-26T06:06:05.124Z,57.75
2018-12-26T06:08:34.425Z,73.80
2018-12-26T06:11:04.349Z,73.30
2018-12-26T06:13:33.593Z,92.27
2018-12-26T06:16:03.778Z,72.77
2018-12-26T06:18:33.843Z,98.77
2018-12-26T06:21:03.396Z,92.77
2018-12-26T06:23:32.829Z,76.03
2018-12-26T06:26:05.666Z,67.63
2018-12-26T06:28:35.567Z,92.00
2018-12-26T06:31:06.865Z,61.30
2018-12-26T06:33:36.772Z,60.37
2018-12-26T06:36:07.884Z,64.63
2018-12-26T06:38:47.433Z,88.00
2018-12-26T06:41:16.982Z,82.67
2018-12-26T06:43:47.040Z,136.17
2018-12-26T06:46:16.331Z,155.67
2018-12-26T06:48:46.186Z,95.20
2018-12-26T06:51:19.951Z,85.47
2018-12-26T06:53:50.179Z,120.37
2018-12-26T06:56:19.993Z,109.43
2018-12-26T06:58:49.379Z,111.37
2018-12-26T07:01:19.318Z,107.73
2018-12-26T07:03:49.007Z,82.23
2018-12-26T07:06:18.889Z,97.77
2018-12-26T07:08:48.178Z,97.87
2018-12-26T07:11:17.811Z,96.93
2018-12-26T07:13:47.517Z,53.30
2018-12-26T07:16:17.299Z,56.23
2018-12-26T07:18:47.033Z,76.37
2018-12-26T07:21:17.007Z,55.80
2018-12-26T07:23:46.082Z,89.90
2018-12-26T07:26:16.088Z,100.23
2018-12-26T07:28:45.506Z,54.13
2018-12-26T07:31:15.344Z,75.27
2018-12-26T07:33:45.216Z,50.43
2018-12-26T07:36:14.677Z,60.40
2018-12-26T07:38:43.764Z,43.60
2018-12-26T07:41:13.617Z,46.83
2018-12-26T07:43:43.840Z,50.30
2018-12-26T07:46:14.118Z,64.87
2018-12-26T07:48:44.202Z,115.00
2018-12-26T07:51:14.547Z,57.17
2018-12-26T07:53:44.073Z,87.50
2018-12-26T07:56:13.636Z,86.03
2018-12-26T07:58:43.416Z,74.37
2018-12-26T08:01:12.546Z,187.40
2018-12-26T08:03:43.164Z,73.57
2018-12-26T08:06:13.117Z,128.23
2018-12-26T08:08:42.905Z,85.87
2018-12-26T08:11:12.277Z,93.83
2018-12-26T08:13:41.634Z,88.27
2018-12-26T08:16:10.672Z,141.47
2018-12-26T08:18:40.369Z,98.83
2018-12-26T08:21:10.263Z,129.10
2018-12-26T08:23:39.836Z,69.97
2018-12-26T08:26:09.487Z,105.87
2018-12-26T08:28:39.091Z,112.13
2018-12-26T08:31:08.848Z,114.93
2018-12-26T08:33:38.529Z,132.20
2018-12-26T08:36:08.040Z,101.33
2018-12-26T08:38:37.922Z,90.73
2018-12-26T08:41:09.011Z,190.10
2018-12-26T08:43:39.153Z,135.87
2018-12-26T08:46:08.745Z,98.07
2018-12-26T08:48:39.045Z,169.03
2018-12-26T08:51:08.414Z,212.77
2018-12-26T08:53:38.310Z,298.40
2018-12-26T08:56:08.172Z,117.50
2018-12-26T08:58:37.500Z,219.10
2018-12-26T09:01:07.476Z,213.10
2018-12-26T09:03:37.299Z,196.07
2018-12-26T09:06:07.356Z,134.83
2018-12-26T09:08:36.331Z,161.63
2018-12-26T09:11:06.131Z,199.73
2018-12-26T09:13:35.911Z,223.53
2018-12-26T09:16:06.159Z,156.03
2018-12-26T09:18:36.268Z,174.70
2018-12-26T09:21:06.777Z,84.30
2018-12-26T09:23:36.276Z,165.90
2018-12-26T09:26:06.359Z,190.60
2018-12-26T09:28:43.621Z,191.40
2018-12-26T09:31:07.080Z,138.40
2018-12-26T09:33:36.620Z,172.13
2018-12-26T09:36:06.235Z,216.27
2018-12-26T09:38:35.667Z,180.37
2018-12-26T09:41:11.050Z,187.07
2018-12-26T09:43:41.179Z,94.80
2018-12-26T09:46:10.857Z,122.90
2018-12-26T09:48:39.980Z,131.33
2018-12-26T09:51:09.115Z,143.17
2018-12-26T09:53:38.311Z,136.33
2018-12-26T09:56:13.078Z,76.70
2018-12-26T09:58:52.415Z,114.17
2018-12-26T10:01:23.339Z,86.80
2018-12-26T10:03:57.808Z,139.93
2018-12-26T10:09:24.866Z,60.53
2018-12-26T10:11:54.742Z,51.83
2018-12-26T10:14:24.496Z,54.77
2018-12-26T10:16:53.716Z,49.63
2018-12-26T10:19:23.296Z,64.90
2018-12-26T10:21:53.173Z,59.27
2018-12-26T10:24:22.264Z,52.93
2018-12-26T10:26:53.297Z,99.80
2018-12-26T10:29:23.374Z,81.03
2018-12-26T10:31:52.937Z,125.07
2018-12-26T10:34:22.068Z,130.53
2018-12-26T10:36:51.923Z,120.27
2018-12-26T10:39:21.047Z,108.47
2018-12-26T10:41:51.257Z,189.97
2018-12-26T10:44:21.742Z,124.90
2018-12-26T10:46:53.251Z,137.00
2018-12-26T10:49:22.977Z,112.83
2018-12-26T10:51:52.828Z,157.63
2018-12-26T10:54:22.192Z,130.17
2018-12-26T10:56:51.694Z,59.07
2018-12-26T10:59:21.582Z,71.50
2018-12-26T11:01:51.282Z,72.67
2018-12-26T11:04:25.228Z,81.07
2018-12-26T11:06:55.423Z,61.60
2018-12-26T11:09:25.002Z,54.43
2018-12-26T11:11:57.667Z,58.17
2018-12-26T11:14:28.132Z,54.70
2018-12-26T11:16:58.565Z,51.77
2018-12-26T11:19:28.783Z,50.30
2018-12-26T11:21:59.979Z,69.87
2018-12-26T11:24:29.750Z,48.27
2018-12-26T11:26:59.835Z,64.57
2018-12-26T11:29:29.289Z,63.00
2018-12-26T11:31:59.366Z,64.37
2018-12-26T11:34:29.239Z,57.97
2018-12-26T11:36:58.963Z,52.97
2018-12-26T11:39:28.398Z,50.07
2018-12-26T11:41:57.787Z,43.60
2018-12-26T11:44:27.311Z,50.57
2018-12-26T11:46:57.000Z,43.77
2018-12-26T11:49:26.881Z,47.35
2018-12-26T11:51:56.267Z,45.57
2018-12-26T11:54:26.229Z,49.57
2018-12-26T11:56:56.018Z,40.50
2018-12-26T11:59:27.244Z,43.03
2018-12-26T12:01:57.194Z,46.17
2018-12-26T12:04:29.572Z,47.60
2018-12-26T12:07:00.109Z,41.27
2018-12-26T12:09:29.855Z,45.97
2018-12-26T12:11:59.897Z,43.53
2018-12-26T12:14:29.572Z,46.77
2018-12-26T12:16:58.985Z,44.83
2018-12-26T12:19:28.388Z,41.20
2018-12-26T12:21:58.051Z,36.63
2018-12-26T12:24:27.254Z,47.33
2018-12-26T12:26:56.570Z,48.33
2018-12-26T12:29:25.683Z,42.67
2018-12-26T12:31:54.801Z,48.10
2018-12-26T12:34:24.222Z,43.93
2018-12-26T12:36:54.722Z,46.00
2018-12-26T12:39:24.538Z,45.10
2018-12-26T12:41:54.163Z,48.03
2018-12-26T12:44:23.786Z,44.70
2018-12-26T12:46:53.478Z,48.80
2018-12-26T12:49:23.111Z,43.83
2018-12-26T12:51:52.898Z,45.30
2018-12-26T12:54:22.005Z,44.97
2018-12-26T12:56:52.608Z,49.27
2018-12-26T12:59:21.945Z,48.13
2018-12-26T13:01:51.234Z,43.47
2018-12-26T13:04:20.865Z,43.10
2018-12-26T13:06:49.968Z,42.63
2018-12-26T13:09:19.444Z,43.33
2018-12-26T13:11:48.847Z,45.47
2018-12-26T13:14:19.582Z,48.77
2018-12-26T13:16:49.837Z,48.87
2018-12-26T13:19:19.822Z,52.57
2018-12-26T13:21:49.372Z,73.77
2018-12-26T13:24:18.897Z,59.87
2018-12-26T13:26:49.701Z,55.93
2018-12-26T13:29:26.656Z,52.00
2018-12-26T13:31:56.921Z,51.33
2018-12-26T13:34:27.032Z,49.70
2018-12-26T13:36:56.828Z,50.03
2018-12-26T13:39:26.117Z,53.30
2018-12-26T13:41:56.005Z,53.47
2018-12-26T13:44:25.784Z,54.93
2018-12-26T13:46:56.744Z,56.13
2018-12-26T13:49:26.570Z,53.47
2018-12-26T13:51:55.487Z,51.10
2018-12-26T13:54:25.467Z,49.73
2018-12-26T13:56:54.621Z,48.90
2018-12-26T13:59:24.717Z,50.43
2018-12-26T14:01:54.986Z,47.70
2018-12-26T14:04:24.299Z,45.23
2018-12-26T14:06:54.171Z,48.13
2018-12-26T14:09:24.762Z,48.27
2018-12-26T14:11:54.661Z,48.93
2018-12-26T14:14:25.027Z,49.97
2018-12-26T14:16:54.670Z,48.10
2018-12-26T14:19:24.917Z,46.60
2018-12-26T14:21:54.814Z,44.53
2018-12-26T14:24:26.250Z,46.73
2018-12-26T14:26:56.176Z,45.93
2018-12-26T14:29:26.856Z,43.40
2018-12-26T14:31:56.928Z,44.63
2018-12-26T14:34:26.598Z,47.23
2018-12-26T14:36:56.900Z,44.80
2018-12-26T14:39:26.894Z,51.23
2018-12-26T14:41:56.613Z,54.47
2018-12-26T14:44:26.584Z,49.63
2018-12-26T14:46:58.750Z,53.47
2018-12-26T14:49:28.315Z,51.30
2018-12-26T14:51:58.014Z,52.87
2018-12-26T14:54:28.347Z,50.67
2018-12-26T14:56:58.182Z,50.13
2018-12-26T14:59:29.005Z,50.30
2018-12-26T15:01:59.720Z,48.93
2018-12-26T15:04:30.042Z,47.70
2018-12-26T15:07:00.007Z,51.90
2018-12-26T15:09:29.657Z,57.80
2018-12-26T15:11:59.056Z,54.13
2018-12-26T15:14:39.975Z,49.90
2018-12-26T15:17:13.683Z,49.67
2018-12-26T15:19:45.221Z,50.43
2018-12-26T15:22:16.384Z,47.20
2018-12-26T15:24:47.663Z,48.73
2018-12-26T15:27:19.025Z,49.43
2018-12-26T15:29:49.930Z,42.87
2018-12-26T15:33:30.627Z,43.20
2018-12-26T15:36:02.535Z,43.13
2018-12-26T15:38:35.182Z,49.97
2018-12-26T15:41:07.043Z,57.07
2018-12-26T15:43:38.855Z,57.97
2018-12-26T15:46:10.694Z,51.80
2018-12-26T15:48:41.364Z,51.33
2018-12-26T15:51:12.231Z,49.23
2018-12-26T15:53:43.861Z,51.53
2018-12-26T15:56:15.084Z,58.37
2018-12-26T15:58:45.133Z,53.67
2018-12-26T16:01:14.221Z,48.60
2018-12-26T16:03:44.538Z,68.63
2018-12-26T16:06:13.324Z,64.53
2018-12-26T16:08:42.754Z,51.70
2018-12-26T16:11:12.246Z,53.30
2018-12-26T16:13:41.532Z,51.07
2018-12-26T16:16:11.418Z,53.50
2018-12-26T16:18:41.794Z,60.20
2018-12-26T16:21:11.554Z,54.73
2018-12-26T16:23:41.420Z,56.00
2018-12-26T16:26:10.822Z,54.87
2018-12-26T16:28:42.335Z,59.20
2018-12-26T16:31:13.175Z,59.40
2018-12-26T16:33:43.366Z,63.27
2018-12-26T16:36:13.009Z,80.33
2018-12-26T16:38:42.220Z,73.03
2018-12-26T16:41:12.002Z,71.17
2018-12-26T16:43:43.187Z,71.47
2018-12-26T16:46:12.210Z,65.33
2018-12-26T16:48:44.620Z,70.37
2018-12-26T16:51:16.002Z,72.93
2018-12-26T16:53:45.965Z,68.40
2018-12-26T16:56:16.606Z,76.80
2018-12-26T16:58:47.458Z,71.63
2018-12-26T17:01:17.525Z,71.83
2018-12-26T17:03:47.668Z,70.87
2018-12-26T17:06:17.779Z,70.53
2018-12-26T17:08:46.887Z,73.90
2018-12-26T17:11:16.706Z,68.70
2018-12-26T17:13:47.066Z,73.63
2018-12-26T17:16:16.455Z,73.55
2018-12-26T17:18:46.552Z,71.43
2018-12-26T17:21:17.185Z,77.43
2018-12-26T17:23:47.221Z,71.70
2018-12-26T17:26:16.758Z,64.23
2018-12-26T17:28:46.224Z,71.90
2018-12-26T17:31:16.315Z,72.13
2018-12-26T17:33:46.486Z,68.03
2018-12-26T17:36:15.980Z,67.47
2018-12-26T17:38:45.925Z,72.47
2018-12-26T17:41:15.342Z,70.40
2018-12-26T17:43:45.098Z,62.63
2018-12-26T17:46:15.581Z,64.73
2018-12-26T17:48:45.346Z,78.17
2018-12-26T17:51:18.243Z,73.20
2018-12-26T17:54:31.345Z,73.70
2018-12-26T17:57:02.574Z,75.30
2018-12-26T18:00:19.510Z,70.47
2018-12-26T18:02:48.890Z,67.43
2018-12-26T18:05:18.686Z,66.07
2018-12-26T18:07:48.100Z,62.13
2018-12-26T18:10:18.042Z,72.70
2018-12-26T18:12:48.348Z,86.80
2018-12-26T18:15:16.947Z,93.27
2018-12-26T18:17:45.682Z,81.27
2018-12-26T18:20:14.992Z,91.30
2018-12-26T18:22:43.800Z,93.73
2018-12-26T18:25:12.816Z,84.93
2018-12-26T18:27:41.925Z,91.80
2018-12-26T18:30:12.403Z,93.07
2018-12-26T18:32:41.178Z,83.13
2018-12-26T18:35:10.935Z,87.43
2018-12-26T18:37:40.135Z,82.30
2018-12-26T18:40:09.255Z,82.13
2018-12-26T18:42:38.523Z,80.17
2018-12-26T18:45:08.016Z,79.20
2018-12-26T18:47:38.168Z,81.20
2018-12-26T18:50:08.667Z,78.13
2018-12-26T18:52:37.666Z,82.07
2018-12-26T18:55:16.117Z,78.93
2018-12-26T18:57:46.393Z,75.97
2018-12-26T19:00:15.704Z,80.47
2018-12-26T19:02:44.756Z,70.90
2018-12-26T19:05:13.952Z,77.13
2018-12-26T19:07:42.878Z,76.57
2018-12-26T19:10:12.153Z,73.40
2018-12-26T19:12:41.362Z,77.73
2018-12-26T19:15:10.056Z,79.30
2018-12-26T19:17:38.988Z,78.40
2018-12-26T19:20:09.632Z,85.37
2018-12-26T19:22:38.592Z,98.33
2018-12-26T19:25:07.719Z,92.73
2018-12-26T19:27:36.555Z,83.30
2018-12-26T19:30:08.024Z,87.70
2018-12-26T19:32:36.804Z,85.10
2018-12-26T19:35:05.519Z,87.90
2018-12-26T19:37:34.814Z,94.20
2018-12-26T19:40:03.970Z,90.60
2018-12-26T19:42:37.309Z,89.80
2018-12-26T19:45:03.867Z,101.67
2018-12-26T19:47:32.855Z,92.17
2018-12-26T19:50:05.270Z,93.80
2018-12-26T19:52:32.482Z,93.73
2018-12-26T19:55:01.584Z,93.97
2018-12-26T19:57:31.320Z,96.37
2018-12-26T20:00:00.636Z,112.97
2018-12-26T20:02:29.373Z,103.10
2018-12-26T20:04:59.274Z,99.57
2018-12-26T20:07:29.455Z,90.10
2018-12-26T20:09:59.167Z,95.07
2018-12-26T20:12:27.939Z,93.90
2018-12-26T20:14:56.855Z,96.80
2018-12-26T20:17:25.497Z,100.87
2018-12-26T20:19:54.792Z,101.70
2018-12-26T20:22:23.508Z,96.83
2018-12-26T20:24:52.925Z,105.37
2018-12-26T20:27:22.126Z,90.87
2018-12-26T20:29:51.279Z,102.90
2018-12-26T20:32:20.499Z,95.70
2018-12-26T20:34:49.857Z,96.93
2018-12-26T20:37:18.803Z,95.70
2018-12-26T20:39:48.149Z,93.30
2018-12-26T20:42:18.094Z,93.78
2018-12-26T20:44:47.058Z,93.10
2018-12-26T20:47:16.009Z,98.52
2018-12-26T20:49:44.977Z,91.57
2018-12-26T20:52:13.666Z,91.33
2018-12-26T20:54:42.350Z,96.87
2018-12-26T20:57:11.714Z,96.15
2018-12-26T20:59:40.729Z,86.13
2018-12-26T21:02:10.923Z,89.70
2018-12-26T21:04:40.056Z,78.53
2018-12-26T21:07:08.839Z,88.07
2018-12-26T21:09:37.991Z,87.13
2018-12-26T21:12:06.697Z,91.83
2018-12-26T21:14:36.025Z,93.97
2018-12-26T21:17:04.975Z,100.80
2018-12-26T21:19:34.295Z,98.50
2018-12-26T21:22:03.460Z,119.77
2018-12-26T21:24:32.112Z,115.73
2018-12-26T21:27:00.953Z,114.90
2018-12-26T21:29:30.047Z,119.07
2018-12-26T21:31:59.646Z,114.80
2018-12-26T21:34:28.584Z,117.63
2018-12-26T21:36:57.895Z,126.03
2018-12-26T21:39:26.973Z,124.20
2018-12-26T21:41:55.752Z,125.20
2018-12-26T21:44:24.923Z,122.40
2018-12-26T21:46:54.009Z,125.40
2018-12-26T21:49:22.943Z,119.73
2018-12-26T21:51:52.130Z,123.93
2018-12-26T21:54:20.830Z,120.93
2018-12-26T21:56:49.898Z,128.17
2018-12-26T21:59:18.414Z,127.63
2018-12-26T22:01:47.296Z,113.20
2018-12-26T22:04:16.198Z,116.50
2018-12-26T22:06:45.177Z,115.43
2018-12-26T22:09:14.219Z,116.33
2018-12-26T22:11:42.953Z,117.03
2018-12-26T22:14:12.322Z,109.53
2018-12-26T22:16:41.317Z,120.97
2018-12-26T22:19:10.033Z,124.77
2018-12-26T22:21:39.238Z,125.97
2018-12-26T22:24:08.501Z,146.20
2018-12-26T22:26:43.177Z,129.73
2018-12-26T22:29:08.788Z,136.87
2018-12-26T22:31:37.452Z,139.20
2018-12-26T22:34:06.345Z,139.33
2018-12-26T22:36:35.503Z,123.67
2018-12-26T22:39:06.112Z,121.77
2018-12-26T22:41:35.255Z,115.73
2018-12-26T22:44:04.155Z,107.67
2018-12-26T22:46:33.320Z,104.30
2018-12-26T22:49:02.213Z,107.20
2018-12-26T22:51:31.131Z,104.73
2018-12-26T22:53:59.920Z,102.30
2018-12-26T22:56:29.277Z,109.43
2018-12-26T22:58:58.335Z,98.90
2018-12-26T23:01:27.305Z,95.70
2018-12-26T23:03:56.098Z,103.47
2018-12-26T23:06:25.090Z,95.83
2018-12-26T23:08:54.060Z,92.53
2018-12-26T23:11:22.964Z,91.43
2018-12-26T23:13:51.710Z,88.87
2018-12-26T23:16:20.945Z,85.73
2018-12-26T23:18:49.491Z,82.67
2018-12-26T23:21:18.777Z,83.90
2018-12-26T23:23:47.711Z,79.10
2018-12-26T23:26:17.101Z,77.53
2018-12-26T23:28:46.138Z,74.53
2018-12-26T23:31:15.114Z,79.13
2018-12-26T23:33:44.005Z,82.47
2018-12-26T23:36:13.258Z,85.90
2018-12-26T23:38:42.299Z,79.03
2018-12-26T23:41:11.329Z,81.20
2018-12-26T23:43:40.347Z,77.70
2018-12-26T23:46:09.366Z,75.27
2018-12-26T23:48:38.370Z,74.93
2018-12-26T23:51:07.437Z,76.90
2018-12-26T23:53:36.319Z,69.17
2018-12-26T23:56:05.438Z,63.57
2018-12-26T23:58:34.374Z,65.07
